Time,TemperatureF,DewpointF,PressureIn,WindDirection,WindDirectionDegrees,WindSpeedMPH,WindSpeedGustMPH,Humidity,HourlyPrecipIn,Conditions,Clouds,dailyrainin,SoftwareType,DateUTC
2013-01-26 00:00:00,9.9,3.0,29.96,SW,225,0.0,0.0,73,0.00,,,0.00,WUHU216HW,2013-01-26 05:00:00,
2013-01-26 00:01:00,9.9,3.0,29.96,SW,225,0.0,0.0,73,0.00,,,0.00,WUHU216HW,2013-01-26 05:01:00,
2013-01-26 00:02:00,9.9,3.0,29.96,SW,225,0.0,0.0,73,0.00,,,0.00,WUHU216HW,2013-01-26 05:02:00,
2013-01-26 00:07:00,9.9,3.0,29.96,WSW,248,0.4,0.4,73,0.00,,,0.00,WUHU216HW,2013-01-26 05:07:00,
2013-01-26 00:12:00,9.5,2.6,29.96,WSW,248,0.0,0.7,73,0.00,,,0.00,WUHU216HW,2013-01-26 05:12:00,
2013-01-26 00:17:00,9.5,2.6,29.96,West,270,0.2,0.9,73,0.00,,,0.00,WUHU216HW,2013-01-26 05:17:00,
2013-01-26 00:22:00,9.5,2.6,29.96,West,270,2.5,2.5,73,0.00,,,0.00,WUHU216HW,2013-01-26 05:22:00,
2013-01-26 00:27:00,9.7,3.1,29.96,West,270,0.9,2.5,74,0.00,,,0.00,WUHU216HW,2013-01-26 05:27:00,
2013-01-26 00:32:00,9.9,3.3,29.96,West,270,1.1,2.5,74,0.00,,,0.00,WUHU216HW,2013-01-26 05:32:00,
2013-01-26 00:37:00,9.9,3.6,29.96,West,270,1.6,2.0,75,0.00,,,0.00,WUHU216HW,2013-01-26 05:37:00,
2013-01-26 00:42:00,9.9,3.6,29.96,West,270,1.6,1.6,75,0.00,,,0.00,WUHU216HW,2013-01-26 05:42:00,
2013-01-26 00:47:00,9.9,3.6,29.96,West,270,1.1,1.8,75,0.00,,,0.00,WUHU216HW,2013-01-26 05:47:00,
2013-01-26 00:52:00,9.9,3.9,29.95,WSW,248,0.9,2.2,76,0.00,,,0.00,WUHU216HW,2013-01-26 05:52:00,
2013-01-26 00:57:00,9.9,3.9,29.96,SW,225,0.7,2.2,76,0.00,,,0.00,WUHU216HW,2013-01-26 05:57:00,
2013-01-26 01:02:00,9.9,3.9,29.96,West,270,2.5,3.4,76,0.00,,,0.00,WUHU216HW,2013-01-26 06:02:00,
2013-01-26 01:08:00,9.7,4.0,29.96,West,270,1.3,3.4,77,0.00,,,0.00,WUHU216HW,2013-01-26 06:08:00,
2013-01-26 01:13:00,9.7,4.0,29.96,WNW,293,0.4,2.5,77,0.00,,,0.00,WUHU216HW,2013-01-26 06:13:00,
2013-01-26 01:18:00,9.7,4.0,29.96,West,270,1.3,2.2,77,0.00,,,0.00,WUHU216HW,2013-01-26 06:18:00,
2013-01-26 01:23:00,9.5,3.8,29.96,WSW,248,1.3,2.9,77,0.00,,,0.00,WUHU216HW,2013-01-26 06:23:00,
2013-01-26 01:28:00,9.5,4.0,29.96,WSW,248,1.1,3.4,78,0.00,,,0.00,WUHU216HW,2013-01-26 06:28:00,
2013-01-26 01:33:00,9.5,4.0,29.96,West,270,1.1,3.4,78,0.00,,,0.00,WUHU216HW,2013-01-26 06:33:00,
2013-01-26 01:38:00,9.3,3.8,29.96,NW,315,1.8,2.7,78,0.00,,,0.00,WUHU216HW,2013-01-26 06:38:00,
2013-01-26 01:43:00,9.3,4.1,29.96,West,270,0.4,1.8,79,0.00,,,0.00,WUHU216HW,2013-01-26 06:43:00,
2013-01-26 01:48:00,9.3,4.1,29.95,West,270,0.4,1.8,79,0.00,,,0.00,WUHU216HW,2013-01-26 06:48:00,
2013-01-26 01:53:00,9.2,4.0,29.95,WNW,293,1.3,1.8,79,0.00,,,0.00,WUHU216HW,2013-01-26 06:53:00,
2013-01-26 01:59:00,9.2,4.0,29.96,WNW,293,0.4,1.8,79,0.00,,,0.00,WUHU216HW,2013-01-26 06:59:00,
2013-01-26 02:04:00,9.2,4.0,29.95,SW,225,1.3,1.6,79,0.00,,,0.00,WUHU216HW,2013-01-26 07:04:00,
2013-01-26 02:09:00,9.2,4.0,29.95,West,270,0.2,2.0,79,0.00,,,0.00,WUHU216HW,2013-01-26 07:09:00,
2013-01-26 02:14:00,9.2,4.0,29.95,West,270,1.3,3.4,79,0.00,,,0.00,WUHU216HW,2013-01-26 07:14:00,
2013-01-26 02:19:00,9.2,4.3,29.95,NW,315,1.1,3.4,80,0.00,,,0.00,WUHU216HW,2013-01-26 07:19:00,
2013-01-26 02:24:00,9.2,4.3,29.95,West,270,0.9,1.8,80,0.00,,,0.00,WUHU216HW,2013-01-26 07:24:00,
2013-01-26 02:29:00,9.0,4.1,29.95,WNW,293,0.4,1.8,80,0.00,,,0.00,WUHU216HW,2013-01-26 07:29:00,
2013-01-26 02:34:00,9.0,4.1,29.94,WNW,293,1.3,1.3,80,0.00,,,0.00,WUHU216HW,2013-01-26 07:34:00,
2013-01-26 02:39:00,8.8,3.6,29.94,West,270,0.9,1.6,79,0.00,,,0.00,WUHU216HW,2013-01-26 07:39:00,
2013-01-26 02:44:00,8.8,3.9,29.94,West,270,1.8,2.9,80,0.00,,,0.00,WUHU216HW,2013-01-26 07:44:00,
2013-01-26 02:49:00,8.8,3.9,29.94,West,270,2.5,2.9,80,0.00,,,0.00,WUHU216HW,2013-01-26 07:49:00,
2013-01-26 02:55:00,8.8,3.9,29.94,North,0,0.0,2.5,80,0.00,,,0.00,WUHU216HW,2013-01-26 07:55:00,
2013-01-26 03:00:00,8.8,3.6,29.95,West,270,1.1,2.5,79,0.00,,,0.00,WUHU216HW,2013-01-26 08:00:00,
2013-01-26 03:05:00,8.8,3.9,29.95,WSW,248,0.4,1.6,80,0.00,,,0.00,WUHU216HW,2013-01-26 08:05:00,
2013-01-26 03:10:00,8.6,3.7,29.94,West,270,2.0,2.0,80,0.00,,,0.00,WUHU216HW,2013-01-26 08:10:00,
2013-01-26 03:15:00,8.6,3.4,29.94,WSW,248,0.4,2.0,79,0.00,,,0.00,WUHU216HW,2013-01-26 08:15:00,
2013-01-26 03:20:00,8.4,3.2,29.94,West,270,1.1,2.0,79,0.00,,,0.00,WUHU216HW,2013-01-26 08:20:00,
2013-01-26 03:25:00,8.4,3.0,29.95,WNW,293,1.1,1.8,78,0.00,,,0.00,WUHU216HW,2013-01-26 08:25:00,
2013-01-26 03:30:00,8.4,3.0,29.94,West,270,2.7,2.7,78,0.00,,,0.00,WUHU216HW,2013-01-26 08:30:00,
2013-01-26 03:36:00,8.3,2.9,29.94,WNW,293,2.0,2.7,78,0.00,,,0.00,WUHU216HW,2013-01-26 08:36:00,
2013-01-26 03:41:00,8.3,3.1,29.94,West,270,4.0,4.0,79,0.00,,,0.00,WUHU216HW,2013-01-26 08:41:00,
2013-01-26 03:46:00,8.3,3.1,29.94,NNW,338,2.7,4.0,79,0.00,,,0.00,WUHU216HW,2013-01-26 08:46:00,
2013-01-26 03:51:00,8.3,3.1,29.94,North,0,0.0,2.7,79,0.00,,,0.00,WUHU216HW,2013-01-26 08:51:00,
2013-01-26 03:56:00,8.3,3.1,29.95,North,0,0.0,2.7,79,0.00,,,0.00,WUHU216HW,2013-01-26 08:56:00,
2013-01-26 04:01:00,8.3,2.9,29.95,North,0,0.0,0.0,78,0.00,,,0.00,WUHU216HW,2013-01-26 09:01:00,
2013-01-26 04:06:00,8.3,2.9,29.95,North,0,0.0,0.0,78,0.00,,,0.00,WUHU216HW,2013-01-26 09:06:00,
2013-01-26 04:11:00,8.1,2.7,29.95,North,0,0.0,0.0,78,0.00,,,0.00,WUHU216HW,2013-01-26 09:11:00,
2013-01-26 04:17:00,8.1,2.7,29.95,North,0,0.0,0.0,78,0.00,,,0.00,WUHU216HW,2013-01-26 09:17:00,
2013-01-26 04:22:00,7.9,2.7,29.95,North,0,0.0,0.0,79,0.00,,,0.00,WUHU216HW,2013-01-26 09:22:00,
2013-01-26 04:27:00,7.9,2.7,29.95,North,0,0.0,0.0,79,0.00,,,0.00,WUHU216HW,2013-01-26 09:27:00,
2013-01-26 04:32:00,7.9,2.7,29.95,North,0,0.0,0.0,79,0.00,,,0.00,WUHU216HW,2013-01-26 09:32:00,
2013-01-26 04:37:00,8.1,2.7,29.96,North,0,0.0,0.0,78,0.00,,,0.00,WUHU216HW,2013-01-26 09:37:00,
2013-01-26 04:42:00,8.1,2.7,29.96,North,0,0.0,0.0,78,0.00,,,0.00,WUHU216HW,2013-01-26 09:42:00,
2013-01-26 04:47:00,8.1,2.7,29.96,North,0,0.0,0.0,78,0.00,,,0.00,WUHU216HW,2013-01-26 09:47:00,
2013-01-26 04:52:00,7.9,2.5,29.96,North,0,0.0,0.0,78,0.00,,,0.00,WUHU216HW,2013-01-26 09:52:00,
2013-01-26 04:57:00,7.9,2.5,29.97,North,0,0.0,0.0,78,0.00,,,0.00,WUHU216HW,2013-01-26 09:57:00,
2013-01-26 05:02:00,7.9,2.5,29.97,North,0,0.0,0.0,78,0.00,,,0.00,WUHU216HW,2013-01-26 10:02:00,
2013-01-26 05:07:00,8.1,2.7,29.97,WNW,293,0.4,0.4,78,0.00,,,0.00,WUHU216HW,2013-01-26 10:07:00,
2013-01-26 05:12:00,8.1,2.7,29.97,WNW,293,0.4,0.4,78,0.00,,,0.00,WUHU216HW,2013-01-26 10:12:00,
2013-01-26 05:18:00,8.1,2.7,29.97,West,270,2.5,2.5,78,0.00,,,0.00,WUHU216HW,2013-01-26 10:18:00,
2013-01-26 05:23:00,8.1,2.7,29.97,SSW,203,0.9,2.5,78,0.00,,,0.00,WUHU216HW,2013-01-26 10:23:00,
2013-01-26 05:28:00,8.1,2.7,29.97,North,0,0.0,2.5,78,0.00,,,0.00,WUHU216HW,2013-01-26 10:28:00,
2013-01-26 05:33:00,8.3,2.9,29.97,West,270,0.7,0.9,78,0.00,,,0.00,WUHU216HW,2013-01-26 10:33:00,
2013-01-26 05:38:00,8.3,2.9,29.97,WNW,293,2.5,2.5,78,0.00,,,0.00,WUHU216HW,2013-01-26 10:38:00,
2013-01-26 05:43:00,8.4,3.2,29.97,West,270,1.3,2.5,79,0.00,,,0.00,WUHU216HW,2013-01-26 10:43:00,
2013-01-26 05:48:00,8.4,3.2,29.97,West,270,0.4,2.7,79,0.00,,,0.00,WUHU216HW,2013-01-26 10:48:00,
2013-01-26 05:53:00,8.4,3.2,29.98,WNW,293,1.1,2.7,79,0.00,,,0.00,WUHU216HW,2013-01-26 10:53:00,
2013-01-26 05:58:00,8.4,3.2,29.98,WNW,293,0.0,1.6,79,0.00,,,0.00,WUHU216HW,2013-01-26 10:58:00,
2013-01-26 06:03:00,8.4,3.0,29.98,WNW,293,4.0,4.0,78,0.00,,,0.00,WUHU216HW,2013-01-26 11:03:00,
2013-01-26 06:08:00,8.4,3.0,29.98,West,270,0.4,4.0,78,0.00,,,0.00,WUHU216HW,2013-01-26 11:08:00,
2013-01-26 06:13:00,8.4,3.0,29.98,West,270,2.7,4.0,78,0.00,,,0.00,WUHU216HW,2013-01-26 11:13:00,
2013-01-26 06:18:00,8.4,3.0,29.98,West,270,0.0,2.7,78,0.00,,,0.00,WUHU216HW,2013-01-26 11:18:00,
2013-01-26 06:23:00,8.4,3.0,29.98,West,270,0.9,2.7,78,0.00,,,0.00,WUHU216HW,2013-01-26 11:23:00,
2013-01-26 06:28:00,8.4,3.0,29.98,North,0,0.0,1.1,78,0.00,,,0.00,WUHU216HW,2013-01-26 11:28:00,
2013-01-26 06:33:00,8.4,3.0,29.99,West,270,1.3,1.3,78,0.00,,,0.00,WUHU216HW,2013-01-26 11:33:00,
2013-01-26 06:38:00,8.4,3.0,29.99,North,0,0.0,1.3,78,0.00,,,0.00,WUHU216HW,2013-01-26 11:38:00,
2013-01-26 06:43:00,8.4,3.0,29.99,North,0,0.0,1.3,78,0.00,,,0.00,WUHU216HW,2013-01-26 11:43:00,
2013-01-26 06:48:00,8.6,2.9,30.00,North,0,0.0,0.0,77,0.00,,,0.00,WUHU216HW,2013-01-26 11:48:00,
2013-01-26 06:53:00,8.6,2.9,30.00,North,0,0.0,0.0,77,0.00,,,0.00,WUHU216HW,2013-01-26 11:53:00,
2013-01-26 06:58:00,8.4,2.7,30.00,North,0,0.0,0.0,77,0.00,,,0.00,WUHU216HW,2013-01-26 11:58:00,
2013-01-26 07:04:00,8.4,2.7,30.01,North,0,0.0,0.0,77,0.00,,,0.00,WUHU216HW,2013-01-26 12:04:00,
2013-01-26 07:09:00,8.3,2.9,30.01,North,0,0.0,0.0,78,0.00,,,0.00,WUHU216HW,2013-01-26 12:09:00,
2013-01-26 07:14:00,8.1,2.7,30.01,North,0,0.0,0.0,78,0.00,,,0.00,WUHU216HW,2013-01-26 12:14:00,
2013-01-26 07:19:00,8.1,2.7,30.01,North,0,0.0,0.0,78,0.00,,,0.00,WUHU216HW,2013-01-26 12:19:00,
2013-01-26 07:24:00,8.1,2.7,30.01,North,0,0.0,0.0,78,0.00,,,0.00,WUHU216HW,2013-01-26 12:24:00,
2013-01-26 07:29:00,8.1,2.7,30.02,North,0,0.0,0.0,78,0.00,,,0.00,WUHU216HW,2013-01-26 12:29:00,
2013-01-26 07:34:00,8.1,2.7,30.02,North,0,0.0,0.0,78,0.00,,,0.00,WUHU216HW,2013-01-26 12:34:00,
2013-01-26 07:39:00,8.1,2.7,30.02,North,0,0.0,0.0,78,0.00,,,0.00,WUHU216HW,2013-01-26 12:39:00,
2013-01-26 07:44:00,8.1,2.7,30.02,North,0,0.0,0.0,78,0.00,,,0.00,WUHU216HW,2013-01-26 12:44:00,
2013-01-26 07:49:00,7.9,2.5,30.02,North,0,0.0,0.0,78,0.00,,,0.00,WUHU216HW,2013-01-26 12:49:00,
2013-01-26 07:54:00,8.1,2.7,30.03,West,270,0.4,0.4,78,0.00,,,0.00,WUHU216HW,2013-01-26 12:54:00,
2013-01-26 07:59:00,8.1,2.7,30.03,West,270,1.8,1.8,78,0.00,,,0.00,WUHU216HW,2013-01-26 12:59:00,
2013-01-26 08:04:00,8.3,2.9,30.03,West,270,1.8,1.8,78,0.00,,,0.00,WUHU216HW,2013-01-26 13:04:00,
2013-01-26 08:09:00,8.3,2.9,30.03,NW,315,1.1,1.8,78,0.00,,,0.00,WUHU216HW,2013-01-26 13:09:00,
2013-01-26 08:14:00,8.4,3.0,30.03,NW,315,2.2,2.7,78,0.00,,,0.00,WUHU216HW,2013-01-26 13:14:00,
2013-01-26 08:19:00,8.8,3.4,30.04,WNW,293,2.2,3.1,78,0.00,,,0.00,WUHU216HW,2013-01-26 13:19:00,
2013-01-26 08:24:00,9.0,3.5,30.04,WNW,293,2.5,4.0,78,0.00,,,0.00,WUHU216HW,2013-01-26 13:24:00,
2013-01-26 08:29:00,9.2,4.0,30.04,West,270,1.6,4.0,79,0.00,,,0.00,WUHU216HW,2013-01-26 13:29:00,
2013-01-26 08:34:00,9.3,3.8,30.04,WSW,248,2.0,3.8,78,0.00,,,0.00,WUHU216HW,2013-01-26 13:34:00,
2013-01-26 08:40:00,9.7,4.2,30.04,WSW,248,4.7,4.7,78,0.00,,,0.00,WUHU216HW,2013-01-26 13:40:00,
2013-01-26 08:45:00,9.9,4.4,30.04,WSW,248,2.5,4.7,78,0.00,,,0.00,WUHU216HW,2013-01-26 13:45:00,
2013-01-26 08:50:00,9.9,4.1,30.04,SW,225,2.9,5.1,77,0.00,,,0.00,WUHU216HW,2013-01-26 13:50:00,
2013-01-26 08:55:00,10.1,4.3,30.04,WSW,248,2.0,5.1,77,0.00,,,0.00,WUHU216HW,2013-01-26 13:55:00,
2013-01-26 09:00:00,10.2,4.4,30.04,WSW,248,2.9,3.4,77,0.00,,,0.00,WUHU216HW,2013-01-26 14:00:00,
2013-01-26 09:05:00,10.4,4.6,30.04,West,270,4.3,6.0,77,0.00,,,0.00,WUHU216HW,2013-01-26 14:05:00,
2013-01-26 09:10:00,10.6,4.8,30.04,WSW,248,3.8,6.0,77,0.00,,,0.00,WUHU216HW,2013-01-26 14:10:00,
2013-01-26 09:15:00,10.6,4.8,30.04,West,270,4.0,4.7,77,0.00,,,0.00,WUHU216HW,2013-01-26 14:15:00,
2013-01-26 09:20:00,10.8,5.0,30.05,West,270,3.8,4.3,77,0.00,,,0.00,WUHU216HW,2013-01-26 14:20:00,
2013-01-26 09:25:00,10.8,4.7,30.05,West,270,3.8,4.0,76,0.00,,,0.00,WUHU216HW,2013-01-26 14:25:00,
2013-01-26 09:30:00,11.0,4.9,30.05,WNW,293,2.7,7.6,76,0.00,,,0.00,WUHU216HW,2013-01-26 14:30:00,
2013-01-26 09:35:00,11.1,5.0,30.05,West,270,1.8,7.6,76,0.00,,,0.00,WUHU216HW,2013-01-26 14:35:00,
2013-01-26 09:40:00,11.3,5.2,30.05,WNW,293,4.7,4.7,76,0.00,,,0.00,WUHU216HW,2013-01-26 14:40:00,
2013-01-26 09:45:00,11.5,5.4,30.05,WNW,293,1.8,5.8,76,0.00,,,0.00,WUHU216HW,2013-01-26 14:45:00,
2013-01-26 09:50:00,11.7,5.6,30.05,WNW,293,3.4,5.8,76,0.00,,,0.00,WUHU216HW,2013-01-26 14:50:00,
2013-01-26 09:55:00,11.7,5.6,30.06,West,270,1.8,4.0,76,0.00,,,0.00,WUHU216HW,2013-01-26 14:55:00,
2013-01-26 10:00:00,11.9,5.8,30.06,West,270,4.5,5.6,76,0.00,,,0.00,WUHU216HW,2013-01-26 15:00:00,
2013-01-26 10:05:00,12.0,5.6,30.06,WSW,248,1.8,5.6,75,0.00,,,0.00,WUHU216HW,2013-01-26 15:05:00,
2013-01-26 10:10:00,12.0,5.3,30.06,WSW,248,5.8,5.8,74,0.00,,,0.00,WUHU216HW,2013-01-26 15:10:00,
2013-01-26 10:15:00,12.0,5.3,30.06,WNW,293,1.8,8.9,74,0.00,,,0.00,WUHU216HW,2013-01-26 15:15:00,
2013-01-26 10:20:00,12.4,5.7,30.06,SW,225,3.4,8.9,74,0.00,,,0.00,WUHU216HW,2013-01-26 15:20:00,
2013-01-26 10:26:00,12.6,5.9,30.06,WNW,293,2.7,6.5,74,0.00,,,0.00,WUHU216HW,2013-01-26 15:26:00,
2013-01-26 10:31:00,12.6,5.6,30.06,WSW,248,6.0,7.2,73,0.00,,,0.00,WUHU216HW,2013-01-26 15:31:00,
2013-01-26 10:36:00,12.8,5.5,30.06,West,270,3.4,7.2,72,0.00,,,0.00,WUHU216HW,2013-01-26 15:36:00,
2013-01-26 10:41:00,12.8,5.5,30.06,WSW,248,5.4,6.0,72,0.00,,,0.00,WUHU216HW,2013-01-26 15:41:00,
2013-01-26 10:46:00,12.9,5.3,30.06,West,270,6.5,6.5,71,0.00,,,0.00,WUHU216HW,2013-01-26 15:46:00,
2013-01-26 10:51:00,13.3,5.7,30.06,WNW,293,6.0,8.7,71,0.00,,,0.00,WUHU216HW,2013-01-26 15:51:00,
2013-01-26 10:56:00,13.5,5.9,30.06,West,270,2.0,8.7,71,0.00,,,0.00,WUHU216HW,2013-01-26 15:56:00,
2013-01-26 11:01:00,13.7,6.1,30.06,WNW,293,4.0,5.1,71,0.00,,,0.00,WUHU216HW,2013-01-26 16:01:00,
2013-01-26 11:06:00,13.8,6.2,30.06,WSW,248,5.1,6.5,71,0.00,,,0.00,WUHU216HW,2013-01-26 16:06:00,
2013-01-26 11:11:00,14.0,5.7,30.06,West,270,6.3,6.7,69,0.00,,,0.00,WUHU216HW,2013-01-26 16:11:00,
2013-01-26 11:16:00,14.2,5.9,30.07,WNW,293,3.8,6.7,69,0.00,,,0.00,WUHU216HW,2013-01-26 16:16:00,
2013-01-26 11:21:00,14.2,5.9,30.07,WSW,248,5.1,6.5,69,0.00,,,0.00,WUHU216HW,2013-01-26 16:21:00,
2013-01-26 11:26:00,14.4,5.8,30.07,WNW,293,5.1,6.5,68,0.00,,,0.00,WUHU216HW,2013-01-26 16:26:00,
2013-01-26 11:31:00,14.6,6.0,30.07,West,270,3.1,6.3,68,0.00,,,0.00,WUHU216HW,2013-01-26 16:31:00,
2013-01-26 11:37:00,14.7,5.4,30.07,WNW,293,3.1,8.7,66,0.00,,,0.00,WUHU216HW,2013-01-26 16:37:00,
2013-01-26 11:42:00,14.9,6.0,30.07,West,270,2.0,8.7,67,0.00,,,0.00,WUHU216HW,2013-01-26 16:42:00,
2013-01-26 11:47:00,14.9,5.6,30.07,West,270,4.0,5.6,66,0.00,,,0.00,WUHU216HW,2013-01-26 16:47:00,
2013-01-26 11:52:00,15.1,5.8,30.07,West,270,3.1,6.9,66,0.00,,,0.00,WUHU216HW,2013-01-26 16:52:00,
2013-01-26 11:57:00,15.3,5.7,30.06,WNW,293,6.9,6.9,65,0.00,,,0.00,WUHU216HW,2013-01-26 16:57:00,
2013-01-26 12:02:00,15.5,5.9,30.06,NNW,338,3.4,8.3,65,0.00,,,0.00,WUHU216HW,2013-01-26 17:02:00,
2013-01-26 12:07:00,15.6,6.0,30.05,NNW,338,6.3,8.3,65,0.00,,,0.00,WUHU216HW,2013-01-26 17:07:00,
2013-01-26 12:12:00,15.8,6.2,30.05,West,270,2.2,7.6,65,0.00,,,0.00,WUHU216HW,2013-01-26 17:12:00,
2013-01-26 12:17:00,16.0,6.4,30.05,NW,315,4.5,6.3,65,0.00,,,0.00,WUHU216HW,2013-01-26 17:17:00,
2013-01-26 12:22:00,15.8,5.8,30.05,NW,315,5.4,7.6,64,0.00,,,0.00,WUHU216HW,2013-01-26 17:22:00,
2013-01-26 12:27:00,15.8,5.8,30.04,NW,315,2.9,7.6,64,0.00,,,0.00,WUHU216HW,2013-01-26 17:27:00,
2013-01-26 12:32:00,15.8,5.8,30.04,West,270,3.1,6.0,64,0.00,,,0.00,WUHU216HW,2013-01-26 17:32:00,
2013-01-26 12:37:00,16.0,6.0,30.04,SW,225,4.7,4.7,64,0.00,,,0.00,WUHU216HW,2013-01-26 17:37:00,
2013-01-26 12:42:00,16.2,6.2,30.04,West,270,3.4,4.7,64,0.00,,,0.00,WUHU216HW,2013-01-26 17:42:00,
2013-01-26 12:48:00,16.4,5.3,30.03,WSW,248,5.8,5.8,61,0.00,,,0.00,WUHU216HW,2013-01-26 17:48:00,
2013-01-26 12:53:00,16.4,6.0,30.04,WNW,293,5.1,5.8,63,0.00,,,0.00,WUHU216HW,2013-01-26 17:53:00,
2013-01-26 12:58:00,16.5,6.1,30.04,West,270,2.0,5.8,63,0.00,,,0.00,WUHU216HW,2013-01-26 17:58:00,
2013-01-26 13:03:00,16.9,6.5,30.04,WSW,248,6.3,6.3,63,0.00,,,0.00,WUHU216HW,2013-01-26 18:03:00,
2013-01-26 13:08:00,17.1,6.0,30.04,SW,225,4.7,6.3,61,0.00,,,0.00,WUHU216HW,2013-01-26 18:08:00,
2013-01-26 13:13:00,17.1,6.0,30.05,West,270,6.5,6.5,61,0.00,,,0.00,WUHU216HW,2013-01-26 18:13:00,
2013-01-26 13:18:00,17.3,6.2,30.05,WNW,293,2.0,6.5,61,0.00,,,0.00,WUHU216HW,2013-01-26 18:18:00,
2013-01-26 13:23:00,17.4,6.3,30.05,West,270,4.0,6.5,61,0.00,,,0.00,WUHU216HW,2013-01-26 18:23:00,
2013-01-26 13:28:00,17.6,6.1,30.04,WSW,248,2.5,4.0,60,0.00,,,0.00,WUHU216HW,2013-01-26 18:28:00,
2013-01-26 13:33:00,17.8,6.7,30.04,ENE,68,3.4,4.0,61,0.00,,,0.00,WUHU216HW,2013-01-26 18:33:00,
2013-01-26 13:38:00,18.0,6.8,30.04,North,0,0.0,3.4,61,0.00,,,0.00,WUHU216HW,2013-01-26 18:38:00,
2013-01-26 13:43:00,18.2,6.7,30.04,West,270,4.5,4.5,60,0.00,,,0.00,WUHU216HW,2013-01-26 18:43:00,
2013-01-26 13:48:00,18.3,6.8,30.04,NW,315,2.5,4.5,60,0.00,,,0.00,WUHU216HW,2013-01-26 18:48:00,
2013-01-26 13:53:00,18.7,6.4,30.04,WNW,293,4.5,7.4,58,0.00,,,0.00,WUHU216HW,2013-01-26 18:53:00,
2013-01-26 13:58:00,18.5,5.0,30.04,WSW,248,5.4,7.8,55,0.00,,,0.00,WUHU216HW,2013-01-26 18:58:00,
2013-01-26 14:03:00,18.7,5.6,30.04,West,270,2.2,8.9,56,0.00,,,0.00,WUHU216HW,2013-01-26 19:03:00,
2013-01-26 14:08:00,18.9,6.2,30.04,West,270,6.9,8.9,57,0.00,,,0.00,WUHU216HW,2013-01-26 19:08:00,
2013-01-26 14:13:00,19.1,6.0,30.04,NW,315,3.1,7.4,56,0.00,,,0.00,WUHU216HW,2013-01-26 19:13:00,
2013-01-26 14:18:00,19.2,6.1,30.05,West,270,6.9,6.9,56,0.00,,,0.00,WUHU216HW,2013-01-26 19:18:00,
2013-01-26 14:24:00,19.6,6.0,30.05,WNW,293,6.0,8.7,55,0.00,,,0.00,WUHU216HW,2013-01-26 19:24:00,
2013-01-26 14:29:00,19.6,6.0,30.05,WSW,248,3.1,8.7,55,0.00,,,0.00,WUHU216HW,2013-01-26 19:29:00,
2013-01-26 14:34:00,19.8,6.2,30.05,WNW,293,6.7,8.1,55,0.00,,,0.00,WUHU216HW,2013-01-26 19:34:00,
2013-01-26 14:39:00,20.0,6.4,30.05,West,270,6.5,8.1,55,0.00,,,0.00,WUHU216HW,2013-01-26 19:39:00,
2013-01-26 14:44:00,20.1,6.1,30.05,SW,225,4.5,8.5,54,0.00,,,0.00,WUHU216HW,2013-01-26 19:44:00,
2013-01-26 14:49:00,20.3,6.7,30.05,NNW,338,5.4,8.5,55,0.00,,,0.00,WUHU216HW,2013-01-26 19:49:00,
2013-01-26 14:54:00,20.1,5.7,30.06,NW,315,6.0,7.6,53,0.00,,,0.00,WUHU216HW,2013-01-26 19:54:00,
2013-01-26 14:59:00,20.1,6.1,30.06,South,180,6.9,7.6,54,0.00,,,0.00,WUHU216HW,2013-01-26 19:59:00,
2013-01-26 15:04:00,20.1,5.2,30.06,West,270,14.5,14.5,52,0.00,,,0.00,WUHU216HW,2013-01-26 20:04:00,
2013-01-26 15:09:00,20.0,5.6,30.07,West,270,7.6,14.5,53,0.00,,,0.00,WUHU216HW,2013-01-26 20:09:00,
2013-01-26 15:14:00,20.0,6.0,30.07,West,270,5.6,14.5,54,0.00,,,0.00,WUHU216HW,2013-01-26 20:14:00,
2013-01-26 15:19:00,20.0,5.6,30.07,West,270,5.8,14.5,53,0.00,,,0.00,WUHU216HW,2013-01-26 20:19:00,
2013-01-26 15:24:00,20.0,6.0,30.07,SSW,203,6.5,14.5,54,0.00,,,0.00,WUHU216HW,2013-01-26 20:24:00,
2013-01-26 15:29:00,20.0,5.6,30.07,WNW,293,5.6,7.2,53,0.00,,,0.00,WUHU216HW,2013-01-26 20:29:00,
2013-01-26 15:34:00,20.0,5.6,30.07,NW,315,5.4,7.2,53,0.00,,,0.00,WUHU216HW,2013-01-26 20:34:00,
2013-01-26 15:39:00,20.0,6.0,30.07,WSW,248,3.1,8.7,54,0.00,,,0.00,WUHU216HW,2013-01-26 20:39:00,
2013-01-26 15:44:00,20.0,6.0,30.07,West,270,3.8,8.7,54,0.00,,,0.00,WUHU216HW,2013-01-26 20:44:00,
2013-01-26 15:49:00,20.0,5.6,30.07,WSW,248,2.9,7.8,53,0.00,,,0.00,WUHU216HW,2013-01-26 20:49:00,
2013-01-26 15:54:00,20.0,5.6,30.08,West,270,6.5,8.5,53,0.00,,,0.00,WUHU216HW,2013-01-26 20:54:00,
2013-01-26 15:59:00,20.0,5.1,30.08,West,270,4.5,11.4,52,0.00,,,0.00,WUHU216HW,2013-01-26 20:59:00,
2013-01-26 16:04:00,20.0,5.6,30.09,WSW,248,3.1,11.4,53,0.00,,,0.00,WUHU216HW,2013-01-26 21:04:00,
2013-01-26 16:09:00,20.0,5.6,30.09,West,270,3.1,5.1,53,0.00,,,0.00,WUHU216HW,2013-01-26 21:09:00,
2013-01-26 16:14:00,20.0,5.6,30.09,West,270,3.8,9.2,53,0.00,,,0.00,WUHU216HW,2013-01-26 21:14:00,
2013-01-26 16:19:00,20.0,5.6,30.09,NW,315,3.1,9.2,53,0.00,,,0.00,WUHU216HW,2013-01-26 21:19:00,
2013-01-26 16:24:00,19.8,5.4,30.09,West,270,5.8,7.8,53,0.00,,,0.00,WUHU216HW,2013-01-26 21:24:00,
2013-01-26 16:29:00,19.6,5.2,30.09,West,270,4.5,7.8,53,0.00,,,0.00,WUHU216HW,2013-01-26 21:29:00,
2013-01-26 16:34:00,19.4,5.0,30.09,SW,225,4.3,6.9,53,0.00,,,0.00,WUHU216HW,2013-01-26 21:34:00,
2013-01-26 16:40:00,19.4,5.0,30.10,West,270,4.7,6.3,53,0.00,,,0.00,WUHU216HW,2013-01-26 21:40:00,
2013-01-26 16:45:00,19.2,4.8,30.10,SSW,203,1.1,7.4,53,0.00,,,0.00,WUHU216HW,2013-01-26 21:45:00,
2013-01-26 16:50:00,19.1,4.7,30.10,West,270,6.0,8.5,53,0.00,,,0.00,WUHU216HW,2013-01-26 21:50:00,
2013-01-26 16:55:00,19.1,4.7,30.11,WNW,293,5.8,10.7,53,0.00,,,0.00,WUHU216HW,2013-01-26 21:55:00,
2013-01-26 17:00:00,18.9,4.5,30.11,SSW,203,4.5,10.7,53,0.00,,,0.00,WUHU216HW,2013-01-26 22:00:00,
2013-01-26 17:05:00,18.7,4.8,30.12,SW,225,2.9,8.5,54,0.00,,,0.00,WUHU216HW,2013-01-26 22:05:00,
2013-01-26 17:10:00,18.5,4.6,30.12,WNW,293,8.5,8.5,54,0.00,,,0.00,WUHU216HW,2013-01-26 22:10:00,
2013-01-26 17:15:00,18.5,4.6,30.12,West,270,5.4,9.2,54,0.00,,,0.00,WUHU216HW,2013-01-26 22:15:00,
2013-01-26 17:20:00,18.3,4.4,30.12,West,270,6.3,9.2,54,0.00,,,0.00,WUHU216HW,2013-01-26 22:20:00,
2013-01-26 17:25:00,18.2,4.7,30.12,NW,315,2.7,8.5,55,0.00,,,0.00,WUHU216HW,2013-01-26 22:25:00,
2013-01-26 17:30:00,18.0,4.5,30.13,WNW,293,8.3,8.3,55,0.00,,,0.00,WUHU216HW,2013-01-26 22:30:00,
2013-01-26 17:35:00,18.0,4.5,30.13,West,270,2.5,8.3,55,0.00,,,0.00,WUHU216HW,2013-01-26 22:35:00,
2013-01-26 17:40:00,17.8,4.3,30.13,WSW,248,6.3,6.9,55,0.00,,,0.00,WUHU216HW,2013-01-26 22:40:00,
2013-01-26 17:45:00,17.8,4.3,30.14,WNW,293,3.1,8.1,55,0.00,,,0.00,WUHU216HW,2013-01-26 22:45:00,
2013-01-26 17:50:00,17.6,4.2,30.15,WNW,293,3.8,8.1,55,0.00,,,0.00,WUHU216HW,2013-01-26 22:50:00,
2013-01-26 17:55:00,17.6,4.2,30.16,WNW,293,2.7,5.8,55,0.00,,,0.00,WUHU216HW,2013-01-26 22:55:00,
2013-01-26 18:00:00,17.4,4.0,30.16,WNW,293,5.8,8.5,55,0.00,,,0.00,WUHU216HW,2013-01-26 23:00:00,
2013-01-26 18:06:00,17.4,4.4,30.15,North,0,4.7,8.5,56,0.00,,,0.00,WUHU216HW,2013-01-26 23:06:00,
2013-01-26 18:11:00,17.3,4.3,30.15,WNW,293,3.4,6.9,56,0.00,,,0.00,WUHU216HW,2013-01-26 23:11:00,
2013-01-26 18:16:00,17.3,4.3,30.15,North,0,3.6,5.6,56,0.00,,,0.00,WUHU216HW,2013-01-26 23:16:00,
2013-01-26 18:21:00,17.1,4.1,30.15,WNW,293,0.9,4.7,56,0.00,,,0.00,WUHU216HW,2013-01-26 23:21:00,
2013-01-26 18:26:00,17.1,4.1,30.16,WNW,293,1.1,4.7,56,0.00,,,0.00,WUHU216HW,2013-01-26 23:26:00,
2013-01-26 18:31:00,17.1,4.1,30.16,WNW,293,1.3,3.8,56,0.00,,,0.00,WUHU216HW,2013-01-26 23:31:00,
2013-01-26 18:36:00,16.9,4.3,30.16,West,270,1.1,5.4,57,0.00,,,0.00,WUHU216HW,2013-01-26 23:36:00,
2013-01-26 18:41:00,16.7,4.1,30.17,SW,225,1.8,5.4,57,0.00,,,0.00,WUHU216HW,2013-01-26 23:41:00,
2013-01-26 18:46:00,16.7,4.1,30.17,WNW,293,0.2,3.6,57,0.00,,,0.00,WUHU216HW,2013-01-26 23:46:00,
2013-01-26 18:51:00,16.7,4.1,30.17,WNW,293,0.4,2.5,57,0.00,,,0.00,WUHU216HW,2013-01-26 23:51:00,
2013-01-26 18:56:00,16.5,3.9,30.17,West,270,0.0,1.8,57,0.00,,,0.00,WUHU216HW,2013-01-26 23:56:00,
2013-01-26 19:01:00,16.4,3.8,30.17,WNW,293,1.1,2.5,57,0.00,,,0.00,WUHU216HW,2013-01-27 00:01:00,
2013-01-26 19:06:00,16.4,4.2,30.17,West,270,1.1,3.4,58,0.00,,,0.00,WUHU216HW,2013-01-27 00:06:00,
2013-01-26 19:11:00,16.2,4.0,30.17,West,270,0.4,3.4,58,0.00,,,0.00,WUHU216HW,2013-01-27 00:11:00,
2013-01-26 19:16:00,16.2,4.0,30.17,NNW,338,0.7,3.1,58,0.00,,,0.00,WUHU216HW,2013-01-27 00:16:00,
2013-01-26 19:21:00,16.0,3.8,30.18,WNW,293,3.4,3.4,58,0.00,,,0.00,WUHU216HW,2013-01-27 00:21:00,
2013-01-26 19:26:00,16.0,3.8,30.18,NNW,338,2.2,3.6,58,0.00,,,0.00,WUHU216HW,2013-01-27 00:26:00,
2013-01-26 19:31:00,16.0,3.8,30.18,West,270,1.1,4.0,58,0.00,,,0.00,WUHU216HW,2013-01-27 00:31:00,
2013-01-26 19:36:00,15.8,3.6,30.18,NW,315,1.1,4.0,58,0.00,,,0.00,WUHU216HW,2013-01-27 00:36:00,
2013-01-26 19:41:00,15.8,3.6,30.18,WSW,248,2.0,4.5,58,0.00,,,0.00,WUHU216HW,2013-01-27 00:41:00,
2013-01-26 19:46:00,15.6,3.5,30.18,WSW,248,4.3,4.5,58,0.00,,,0.00,WUHU216HW,2013-01-27 00:46:00,
2013-01-26 19:51:00,15.6,3.5,30.19,WNW,293,6.9,6.9,58,0.00,,,0.00,WUHU216HW,2013-01-27 00:51:00,
2013-01-26 19:57:00,15.6,3.8,30.19,West,270,4.3,6.9,59,0.00,,,0.00,WUHU216HW,2013-01-27 00:57:00,
2013-01-26 20:02:00,15.6,3.8,30.19,NW,315,3.1,6.9,59,0.00,,,0.00,WUHU216HW,2013-01-27 01:02:00,
2013-01-26 20:07:00,15.6,3.8,30.19,WNW,293,2.0,6.7,59,0.00,,,0.00,WUHU216HW,2013-01-27 01:07:00,
2013-01-26 20:12:00,15.5,3.7,30.19,WSW,248,4.7,4.7,59,0.00,,,0.00,WUHU216HW,2013-01-27 01:12:00,
2013-01-26 20:17:00,15.5,3.7,30.19,West,270,2.0,5.6,59,0.00,,,0.00,WUHU216HW,2013-01-27 01:17:00,
2013-01-26 20:22:00,15.3,3.6,30.19,West,270,4.0,5.6,59,0.00,,,0.00,WUHU216HW,2013-01-27 01:22:00,
2013-01-26 20:27:00,15.3,3.6,30.20,WSW,248,3.1,5.1,59,0.00,,,0.00,WUHU216HW,2013-01-27 01:27:00,
2013-01-26 20:32:00,15.1,3.7,30.20,NW,315,1.3,5.1,60,0.00,,,0.00,WUHU216HW,2013-01-27 01:32:00,
2013-01-26 20:37:00,15.1,3.7,30.20,WSW,248,3.1,5.4,60,0.00,,,0.00,WUHU216HW,2013-01-27 01:37:00,
2013-01-26 20:42:00,15.1,3.7,30.20,WNW,293,5.4,5.4,60,0.00,,,0.00,WUHU216HW,2013-01-27 01:42:00,
2013-01-26 20:47:00,14.9,3.5,30.20,WNW,293,4.7,5.4,60,0.00,,,0.00,WUHU216HW,2013-01-27 01:47:00,
2013-01-26 20:52:00,14.9,3.5,30.20,WNW,293,1.6,5.4,60,0.00,,,0.00,WUHU216HW,2013-01-27 01:52:00,
2013-01-26 20:57:00,14.9,3.5,30.21,West,270,4.0,6.3,60,0.00,,,0.00,WUHU216HW,2013-01-27 01:57:00,
2013-01-26 21:03:00,14.7,3.7,30.21,WSW,248,2.5,6.3,61,0.00,,,0.00,WUHU216HW,2013-01-27 02:03:00,
2013-01-26 21:08:00,14.7,3.7,30.21,WSW,248,2.5,5.1,61,0.00,,,0.00,WUHU216HW,2013-01-27 02:08:00,
2013-01-26 21:13:00,14.7,3.7,30.21,WNW,293,2.5,5.1,61,0.00,,,0.00,WUHU216HW,2013-01-27 02:13:00,
2013-01-26 21:18:00,14.6,3.6,30.22,West,270,2.5,5.4,61,0.00,,,0.00,WUHU216HW,2013-01-27 02:18:00,
2013-01-26 21:23:00,14.6,3.6,30.22,WNW,293,3.6,6.5,61,0.00,,,0.00,WUHU216HW,2013-01-27 02:23:00,
2013-01-26 21:28:00,14.6,3.6,30.22,West,270,3.4,6.5,61,0.00,,,0.00,WUHU216HW,2013-01-27 02:28:00,
2013-01-26 21:33:00,14.6,3.6,30.23,West,270,1.6,4.3,61,0.00,,,0.00,WUHU216HW,2013-01-27 02:33:00,
2013-01-26 21:38:00,14.4,3.4,30.23,West,270,1.1,5.6,61,0.00,,,0.00,WUHU216HW,2013-01-27 02:38:00,
2013-01-26 21:43:00,14.4,3.4,30.23,West,270,1.8,6.0,61,0.00,,,0.00,WUHU216HW,2013-01-27 02:43:00,
2013-01-26 21:48:00,14.2,3.2,30.23,SW,225,1.8,6.0,61,0.00,,,0.00,WUHU216HW,2013-01-27 02:48:00,
2013-01-26 21:53:00,14.2,3.2,30.23,West,270,1.3,3.4,61,0.00,,,0.00,WUHU216HW,2013-01-27 02:53:00,
2013-01-26 21:58:00,14.2,3.2,30.23,West,270,3.4,5.4,61,0.00,,,0.00,WUHU216HW,2013-01-27 02:58:00,
2013-01-26 22:03:00,14.2,3.2,30.23,WNW,293,4.3,5.4,61,0.00,,,0.00,WUHU216HW,2013-01-27 03:03:00,
2013-01-26 22:08:00,14.2,3.2,30.24,NNW,338,2.7,5.4,61,0.00,,,0.00,WUHU216HW,2013-01-27 03:08:00,
2013-01-26 22:13:00,14.2,3.6,30.24,NW,315,1.8,4.3,62,0.00,,,0.00,WUHU216HW,2013-01-27 03:13:00,
2013-01-26 22:18:00,14.2,3.6,30.24,SW,225,1.3,5.6,62,0.00,,,0.00,WUHU216HW,2013-01-27 03:18:00,
2013-01-26 22:23:00,14.0,3.4,30.24,West,270,3.4,5.6,62,0.00,,,0.00,WUHU216HW,2013-01-27 03:23:00,
2013-01-26 22:28:00,14.0,3.4,30.25,NNW,338,1.3,5.4,62,0.00,,,0.00,WUHU216HW,2013-01-27 03:28:00,
2013-01-26 22:33:00,13.8,3.2,30.25,WNW,293,2.0,3.6,62,0.00,,,0.00,WUHU216HW,2013-01-27 03:33:00,
2013-01-26 22:38:00,13.8,3.6,30.25,West,270,1.6,2.7,63,0.00,,,0.00,WUHU216HW,2013-01-27 03:38:00,
2013-01-26 22:43:00,13.8,3.6,30.25,NNW,338,1.6,4.0,63,0.00,,,0.00,WUHU216HW,2013-01-27 03:43:00,
2013-01-26 22:48:00,13.7,3.5,30.25,WNW,293,2.0,4.0,63,0.00,,,0.00,WUHU216HW,2013-01-27 03:48:00,
2013-01-26 22:53:00,13.7,3.5,30.25,WNW,293,1.3,2.9,63,0.00,,,0.00,WUHU216HW,2013-01-27 03:53:00,
2013-01-26 22:58:00,13.7,3.5,30.25,WSW,248,1.1,2.5,63,0.00,,,0.00,WUHU216HW,2013-01-27 03:58:00,
2013-01-26 23:03:00,13.7,3.8,30.25,WSW,248,1.1,2.9,64,0.00,,,0.00,WUHU216HW,2013-01-27 04:03:00,
2013-01-26 23:08:00,13.5,3.6,30.26,West,270,0.2,2.9,64,0.00,,,0.00,WUHU216HW,2013-01-27 04:08:00,
2013-01-26 23:13:00,13.5,3.6,30.26,WSW,248,1.1,2.2,64,0.00,,,0.00,WUHU216HW,2013-01-27 04:13:00,
2013-01-26 23:18:00,13.5,3.6,30.26,ESE,113,0.9,1.8,64,0.00,,,0.00,WUHU216HW,2013-01-27 04:18:00,
2013-01-26 23:23:00,13.5,3.6,30.26,West,270,0.4,1.8,64,0.00,,,0.00,WUHU216HW,2013-01-27 04:23:00,
2013-01-26 23:28:00,13.5,3.6,30.26,WSW,248,1.1,1.1,64,0.00,,,0.00,WUHU216HW,2013-01-27 04:28:00,
2013-01-26 23:33:00,13.5,3.6,30.27,West,270,0.9,1.1,64,0.00,,,0.00,WUHU216HW,2013-01-27 04:33:00,
2013-01-26 23:38:00,13.5,3.6,30.27,WSW,248,1.3,1.3,64,0.00,,,0.00,WUHU216HW,2013-01-27 04:38:00,
2013-01-26 23:43:00,13.5,3.6,30.27,West,270,0.0,2.5,64,0.00,,,0.00,WUHU216HW,2013-01-27 04:43:00,
2013-01-26 23:48:00,13.5,3.6,30.27,SSW,203,0.2,2.5,64,0.00,,,0.00,WUHU216HW,2013-01-27 04:48:00,
2013-01-26 23:53:00,13.3,3.8,30.27,West,270,0.0,1.1,65,0.00,,,0.00,WUHU216HW,2013-01-27 04:53:00,
2013-01-26 23:58:00,13.3,3.8,30.27,WSW,248,0.2,1.1,65,0.00,,,0.00,WUHU216HW,2013-01-27 04:58:00,